Time;durP1;ratioP1;P1;durP2;ratioP2;P2;SDS_P1;SDS_P2;PMS_P1;PMS_P2;Temp;Humidity;BMP_temperature;BMP_pressure;BME280_temperature;BME280_humidity;BME280_pressure;Samples;Min_cycle;Max_cycle;Signal;HPM_P1;HPM_P2
2022/12/10 00:01:19;;;;;;;36.50;15.30;;;;;;;-2.54;87.01;99330.42;105936;1284;68016;-71
2022/12/10 00:04:07;;;;;;;28.20;12.40;;;;;;;-2.57;87.03;99326.85;105917;1292;72697;-71
2022/12/10 00:06:54;;;;;;;34.90;13.50;;;;;;;-2.57;87.28;99325.64;106007;1290;58256;-72
2022/12/10 00:09:42;;;;;;;34.20;15.40;;;;;;;-2.57;87.13;99331.55;106002;1290;60336;-71
2022/12/10 00:12:30;;;;;;;39.80;16.00;;;;;;;-2.58;87.19;99330.36;106015;1284;74058;-70
2022/12/10 00:15:18;;;;;;;32.10;14.20;;;;;;;-2.56;86.86;99327.88;106022;1290;65312;-70
2022/12/10 00:18:05;;;;;;;37.60;17.00;;;;;;;-2.57;87.05;99331.20;106017;1291;70328;-70
2022/12/10 00:20:54;;;;;;;39.10;17.70;;;;;;;-2.57;86.95;99330.50;105283;1289;1002521;-71
2022/12/10 00:23:42;;;;;;;32.10;15.00;;;;;;;-2.53;86.99;99331.41;106014;1298;60507;-72
2022/12/10 00:26:35;;;;;;;37.60;15.50;;;;;;;-2.49;87.16;99331.65;106025;1289;71882;-70
2022/12/10 00:29:22;;;;;;;20.90;8.40;;;;;;;-2.50;86.79;99329.06;105952;1292;68573;-71
2022/12/10 00:32:10;;;;;;;12.90;5.40;;;;;;;-2.47;84.09;99330.16;106012;1290;72768;-71
2022/12/10 00:34:58;;;;;;;11.90;4.80;;;;;;;-2.40;82.44;99331.46;105995;1291;58057;-71
2022/12/10 00:37:45;;;;;;;13.80;5.50;;;;;;;-2.33;82.49;99328.27;105986;1284;61552;-70
2022/12/10 00:40:33;;;;;;;16.50;5.80;;;;;;;-2.29;82.45;99329.32;105915;1290;71813;-71
2022/12/10 00:43:21;;;;;;;18.90;7.70;;;;;;;-2.30;83.28;99325.20;106005;1284;69155;-70
2022/12/10 00:46:11;;;;;;;20.10;8.50;;;;;;;-2.36;83.95;99333.06;106019;1284;73910;-69
2022/12/10 00:49:00;;;;;;;24.70;9.90;;;;;;;-2.42;84.40;99328.22;105916;1292;57182;-70
2022/12/10 00:51:51;;;;;;;24.20;10.00;;;;;;;-2.45;85.08;99330.78;105903;1297;60487;-71
2022/12/10 00:54:53;;;;;;;26.20;10.40;;;;;;;-2.47;85.34;99329.48;105751;1292;74127;-71
2022/12/10 00:57:42;;;;;;;20.30;9.40;;;;;;;-2.44;85.52;99335.45;105823;1298;66602;-70
2022/12/10 01:00:30;;;;;;;20.70;9.00;;;;;;;-2.42;84.74;99338.65;105995;1290;72579;-71
2022/12/10 01:03:18;;;;;;;21.90;9.00;;;;;;;-2.45;84.52;99339.98;105902;1290;57194;-70
2022/12/10 01:06:14;;;;;;;22.40;9.20;;;;;;;-2.52;84.69;99337.27;105995;1291;59302;-70
2022/12/10 01:09:06;;;;;;;20.50;7.90;;;;;;;-2.58;84.41;99333.69;105754;1295;72964;-71
2022/12/10 01:11:57;;;;;;;23.10;8.20;;;;;;;-2.60;84.32;99331.48;105896;1287;66701;-71
2022/12/10 01:14:45;;;;;;;19.60;7.00;;;;;;;-2.60;84.59;99330.80;105872;1287;70198;-71
2022/12/10 01:17:32;;;;;;;17.50;8.10;;;;;;;-2.60;84.54;99332.35;105288;1291;1002248;-71
2022/12/10 01:20:20;;;;;;;18.60;6.90;;;;;;;-2.59;84.81;99330.40;105312;1284;1002406;-71
2022/12/10 01:23:08;;;;;;;21.00;8.80;;;;;;;-2.61;84.66;99332.75;104529;1290;1002733;-70
2022/12/10 01:26:04;;;;;;;20.40;8.50;;;;;;;-2.62;85.12;99329.48;105913;1287;68026;-70
2022/12/10 01:28:54;;;;;;;22.70;9.00;;;;;;;-2.61;84.99;99326.30;105745;1288;72885;-71
2022/12/10 01:31:41;;;;;;;19.20;8.80;;;;;;;-2.57;84.94;99328.95;105914;1288;59768;-71
2022/12/10 01:34:29;;;;;;;22.90;9.20;;;;;;;-2.54;84.74;99325.92;106013;1284;58963;-72
2022/12/10 01:37:16;;;;;;;16.90;7.80;;;;;;;-2.53;84.98;99327.77;105300;1290;1002890;-71
2022/12/10 01:40:05;;;;;;;20.10;8.60;;;;;;;-2.52;84.89;99326.17;105899;1288;67712;-71
2022/12/10 01:42:53;;;;;;;17.40;7.30;;;;;;;-2.52;84.93;99324.95;105912;1292;73933;-72
2022/12/10 01:45:47;;;;;;;15.90;6.60;;;;;;;-2.54;84.96;99324.15;106020;1291;57190;-71
2022/12/10 01:48:34;;;;;;;17.30;7.60;;;;;;;-2.54;84.92;99322.43;106015;1290;60671;-71
2022/12/10 01:51:24;;;;;;;19.10;8.00;;;;;;;-2.55;85.12;99319.15;105938;1292;72153;-71
2022/12/10 01:54:22;;;;;;;17.40;6.90;;;;;;;-2.56;84.68;99319.70;105947;1284;69006;-72
2022/12/10 01:57:28;;;;;;;20.40;8.40;;;;;;;-2.59;85.06;99317.71;105252;1290;1002319;-71
2022/12/10 02:00:16;;;;;;;25.40;10.10;;;;;;;-2.59;85.03;99319.11;105988;1290;59353;-71
2022/12/10 02:03:13;;;;;;;27.00;11.60;;;;;;;-2.59;85.33;99316.85;106009;1290;61641;-71
2022/12/10 02:06:25;;;;;;;27.30;12.30;;;;;;;-2.59;85.04;99319.27;105991;1284;72954;-70
2022/12/10 02:09:58;;;;;;;29.60;13.00;;;;;;;-2.62;84.64;99317.30;106016;1290;67897;-71
2022/12/10 02:13:04;;;;;;;30.10;13.20;;;;;;;-2.63;85.08;99324.48;105993;1291;71484;-71
2022/12/10 02:16:01;;;;;;;28.40;11.80;;;;;;;-2.62;84.98;99322.19;105919;1284;58393;-71
2022/12/10 02:19:08;;;;;;;25.30;11.20;;;;;;;-2.64;85.04;99316.16;105929;1286;58923;-71
2022/12/10 02:21:58;;;;;;;18.50;7.80;;;;;;;-2.65;85.24;99317.25;105914;1285;73064;-70
2022/12/10 02:24:50;;;;;;;20.80;9.60;;;;;;;-2.67;85.30;99317.83;105923;1290;69134;-70
2022/12/10 02:28:04;;;;;;;20.00;8.00;;;;;;;-2.70;85.10;99317.60;105778;1291;73674;-71
2022/12/10 02:30:54;;;;;;;20.20;8.20;;;;;;;-2.72;85.25;99320.27;105900;1287;57821;-71
2022/12/10 02:33:50;;;;;;;22.50;9.90;;;;;;;-2.73;85.57;99322.21;105915;1292;60566;-70
2022/12/10 02:36:42;;;;;;;22.00;9.90;;;;;;;-2.73;85.61;99319.97;105931;1287;72974;-71
2022/12/10 02:39:38;;;;;;;20.90;9.70;;;;;;;-2.74;85.53;99321.19;105872;1285;68010;-70
2022/12/10 02:42:29;;;;;;;24.80;10.20;;;;;;;-2.73;85.42;99324.47;105761;1292;72995;-71
2022/12/10 02:45:22;;;;;;;19.00;8.70;;;;;;;-2.74;85.26;99326.73;105835;1294;58490;-70
2022/12/10 02:48:11;;;;;;;17.20;7.60;;;;;;;-2.77;84.89;99321.66;105823;1294;60536;-72
2022/12/10 02:51:01;;;;;;;21.50;9.30;;;;;;;-2.79;85.29;99325.88;105175;1292;1002769;-70
2022/12/10 02:54:01;;;;;;;19.30;9.10;;;;;;;-2.80;85.13;99326.28;105911;1284;68146;-71
2022/12/10 02:56:58;;;;;;;17.00;7.50;;;;;;;-2.85;84.92;99327.66;105811;1284;72857;-73
2022/12/10 03:00:18;;;;;;;21.60;8.20;;;;;;;-2.85;85.39;99327.17;105098;1284;1002611;-70
2022/12/10 03:03:25;;;;;;;19.60;7.60;;;;;;;-2.87;85.02;99334.33;105810;1292;61331;-71
2022/12/10 03:06:42;;;;;;;18.90;7.90;;;;;;;-2.87;85.14;99330.02;105181;1291;1002863;-71
2022/12/10 03:09:39;;;;;;;20.80;8.30;;;;;;;-2.88;85.43;99327.95;105923;1291;66222;-72
2022/12/10 03:12:44;;;;;;;20.40;8.30;;;;;;;-2.91;84.81;99325.42;105934;1292;74146;-73
2022/12/10 03:15:38;;;;;;;23.00;9.40;;;;;;;-2.92;84.77;99324.94;105821;1292;57479;-71
2022/12/10 03:18:27;;;;;;;21.10;9.20;;;;;;;-2.90;84.96;99324.88;106026;1284;58680;-71
2022/12/10 03:21:16;;;;;;;18.30;7.50;;;;;;;-2.89;84.24;99320.66;105195;1290;1002114;-73
2022/12/10 03:24:05;;;;;;;16.90;7.20;;;;;;;-2.87;84.19;99320.98;105949;1291;67503;-70
2022/12/10 03:26:57;;;;;;;17.00;7.40;;;;;;;-2.89;84.01;99322.07;105879;1285;73735;-73
2022/12/10 03:29:56;;;;;;;16.50;6.80;;;;;;;-2.88;84.21;99326.21;105815;1287;57604;-73
2022/12/10 03:32:44;;;;;;;19.50;8.20;;;;;;;-2.89;83.58;99319.45;105747;1291;61166;-73
2022/12/10 03:35:34;;;;;;;27.70;11.40;;;;;;;-2.90;83.89;99322.96;105110;1287;1002956;-71
2022/12/10 03:38:22;;;;;;;26.70;11.70;;;;;;;-2.91;83.93;99323.16;106009;1284;68881;-74
2022/12/10 03:41:10;;;;;;;20.60;10.60;;;;;;;-2.92;83.98;99324.26;105068;1284;1002081;-75
2022/12/10 03:44:00;;;;;;;21.00;9.80;;;;;;;-2.90;84.29;99325.94;105850;1284;58466;-72
2022/12/10 03:46:47;;;;;;;19.20;9.20;;;;;;;-2.88;84.07;99327.08;105990;1292;61533;-70
2022/12/10 03:49:35;;;;;;;22.30;10.10;;;;;;;-2.85;83.86;99322.29;105996;1290;73866;-70
2022/12/10 03:52:22;;;;;;;33.80;15.50;;;;;;;-2.84;84.06;99322.23;106028;1282;66662;-72
2022/12/10 03:55:11;;;;;;;22.50;10.70;;;;;;;-2.82;84.31;99320.09;105268;1290;1002224;-75
2022/12/10 03:57:59;;;;;;;22.10;9.90;;;;;;;-2.82;84.39;99314.88;105784;1288;57230;-74
2022/12/10 04:00:48;;;;;;;19.70;8.10;;;;;;;-2.85;84.21;99316.73;105843;1300;60069;-71
2022/12/10 04:03:39;;;;;;;18.80;8.60;;;;;;;-2.89;84.56;99319.47;105048;1290;1002223;-70
2022/12/10 04:06:26;;;;;;;18.20;7.80;;;;;;;-2.91;84.36;99320.92;105876;1291;67109;-71
2022/12/10 04:09:15;;;;;;;16.60;7.10;;;;;;;-2.94;84.83;99319.63;105205;1284;1002070;-71
2022/12/10 04:12:04;;;;;;;19.60;7.50;;;;;;;-2.95;84.81;99319.50;106022;1290;58287;-70
2022/12/10 04:17:58;;;;;;;20.70;9.40;;;;;;;-2.98;85.34;99318.55;104451;1290;1002832;-72
2022/12/10 04:27:05;;;;;;;20.20;8.40;;;;;;;-2.94;84.95;99319.83;106007;1284;58000;-71
2022/12/10 04:29:55;;;;;;;20.70;8.40;;;;;;;-2.92;85.27;99321.49;105804;1295;60101;-71
2022/12/10 04:32:43;;;;;;;16.20;6.80;;;;;;;-2.94;85.47;99322.73;105291;1284;1002202;-71
2022/12/10 04:35:31;;;;;;;16.60;7.70;;;;;;;-2.93;85.34;99319.24;105678;1294;68614;-71
2022/12/10 04:38:19;;;;;;;20.90;8.80;;;;;;;-2.95;84.92;99317.25;104947;1301;1002434;-72
2022/12/10 04:41:15;;;;;;;16.60;7.30;;;;;;;-2.96;85.36;99317.46;104954;1286;1003015;-71
2022/12/10 04:44:09;;;;;;;16.90;7.40;;;;;;;-2.97;85.55;99319.20;105711;1295;60031;-73
2022/12/10 04:46:57;;;;;;;18.00;8.10;;;;;;;-2.97;85.55;99317.30;105690;1286;71931;-71
2022/12/10 04:49:45;;;;;;;19.00;8.80;;;;;;;-2.98;85.53;99310.04;105681;1287;69077;-70
2022/12/10 04:52:33;;;;;;;20.30;8.60;;;;;;;-2.98;85.62;99308.49;105663;1294;72886;-72
2022/12/10 04:55:21;;;;;;;21.90;8.80;;;;;;;-2.98;85.36;99310.23;104920;1294;1002583;-70
2022/12/10 04:58:08;;;;;;;21.10;8.40;;;;;;;-2.99;85.24;99308.52;105676;1292;59396;-71
2022/12/10 05:01:05;;;;;;;18.40;8.80;;;;;;;-2.97;85.46;99304.98;105693;1293;73072;-72
2022/12/10 05:03:53;;;;;;;19.40;7.70;;;;;;;-2.95;85.65;99306.98;104798;1296;1002376;-70
2022/12/10 05:06:42;;;;;;;18.60;7.00;;;;;;;-2.94;85.65;99302.44;105759;1287;71762;-71
2022/12/10 05:09:30;;;;;;;17.70;7.10;;;;;;;-2.95;85.33;99304.38;106020;1292;57281;-71
2022/12/10 05:12:18;;;;;;;16.10;6.70;;;;;;;-2.97;85.25;99302.53;105158;1292;1002539;-70
2022/12/10 05:15:07;;;;;;;19.30;6.90;;;;;;;-2.99;85.46;99305.93;106021;1284;74144;-71
2022/12/10 05:17:55;;;;;;;20.30;7.80;;;;;;;-3.02;85.56;99308.44;105871;1286;68971;-73
2022/12/10 05:20:43;;;;;;;20.40;8.60;;;;;;;-3.03;85.51;99308.67;105971;1290;72849;-71
2022/12/10 05:23:32;;;;;;;20.50;8.50;;;;;;;-3.03;85.63;99305.55;105985;1284;58925;-73
2022/12/10 05:26:23;;;;;;;17.60;8.00;;;;;;;-3.02;85.43;99307.42;105999;1290;61155;-73
2022/12/10 05:29:13;;;;;;;18.40;8.40;;;;;;;-3.02;84.94;99307.05;105805;1299;74315;-71
2022/12/10 05:32:03;;;;;;;16.50;6.80;;;;;;;-3.02;84.98;99302.70;105995;1284;68902;-72
2022/12/10 05:34:51;;;;;;;17.60;7.50;;;;;;;-3.01;85.07;99304.44;105864;1287;71176;-71
2022/12/10 05:37:39;;;;;;;17.60;6.60;;;;;;;-3.02;84.86;99312.26;105904;1291;57296;-70
2022/12/10 05:40:27;;;;;;;16.20;7.10;;;;;;;-2.99;85.09;99311.66;105899;1284;60704;-72
2022/12/10 05:43:15;;;;;;;15.50;6.70;;;;;;;-3.00;84.80;99312.73;105914;1291;73319;-72
2022/12/10 05:46:11;;;;;;;17.60;7.40;;;;;;;-3.02;84.85;99311.23;105166;1291;1002134;-73
2022/12/10 05:49:01;;;;;;;20.30;8.80;;;;;;;-3.05;84.82;99314.98;105022;1284;1002810;-72
2022/12/10 05:51:48;;;;;;;17.00;7.30;;;;;;;-3.04;85.02;99317.91;105899;1284;57359;-71
2022/12/10 05:54:35;;;;;;;19.80;8.00;;;;;;;-3.02;85.03;99320.10;105904;1284;61603;-72
2022/12/10 05:57:23;;;;;;;19.00;8.00;;;;;;;-3.02;84.60;99318.17;105920;1291;73291;-72
2022/12/10 06:00:12;;;;;;;20.70;8.30;;;;;;;-3.00;84.84;99316.20;105918;1288;68866;-73
2022/12/10 06:03:00;;;;;;;13.90;5.80;;;;;;;-2.97;84.85;99316.11;105894;1297;73877;-72
2022/12/10 06:05:48;;;;;;;19.20;8.20;;;;;;;-3.00;84.88;99318.46;105821;1285;57255;-71
2022/12/10 06:08:37;;;;;;;17.80;7.30;;;;;;;-3.02;84.83;99319.71;105879;1284;60025;-71
2022/12/10 06:11:28;;;;;;;17.90;7.40;;;;;;;-3.04;84.62;99314.59;105126;1291;1002048;-72
2022/12/10 06:14:16;;;;;;;14.40;6.10;;;;;;;-3.08;84.66;99312.47;105712;1297;66993;-70
2022/12/10 06:17:04;;;;;;;16.20;7.00;;;;;;;-3.12;84.65;99315.55;105872;1290;73879;-71
2022/12/10 06:19:51;;;;;;;20.50;8.30;;;;;;;-3.15;85.12;99312.18;105841;1290;57302;-71
2022/12/10 06:22:39;;;;;;;20.10;8.80;;;;;;;-3.14;85.52;99318.91;105164;1291;1003091;-70
2022/12/10 06:25:26;;;;;;;17.40;8.50;;;;;;;-3.12;85.35;99326.83;105167;1291;1002675;-70
2022/12/10 06:28:14;;;;;;;17.60;7.50;;;;;;;-3.07;85.16;99328.76;105935;1283;66622;-71
2022/12/10 06:31:02;;;;;;;15.20;7.20;;;;;;;-3.05;85.01;99324.73;105156;1291;1002909;-71
2022/12/10 06:33:50;;;;;;;15.20;6.90;;;;;;;-3.04;85.26;99328.48;105915;1298;57964;-71
2022/12/10 06:36:38;;;;;;;18.60;8.40;;;;;;;-3.03;85.29;99328.63;105144;1294;1002732;-71
2022/12/10 06:39:26;;;;;;;18.10;7.40;;;;;;;-3.06;85.68;99330.80;105252;1291;1002346;-71
2022/12/10 06:42:14;;;;;;;18.60;8.10;;;;;;;-3.03;85.31;99334.18;105769;1287;67927;-71
2022/12/10 06:45:01;;;;;;;21.10;9.50;;;;;;;-3.05;85.16;99338.23;105956;1291;72882;-70
2022/12/10 06:47:49;;;;;;;20.90;9.80;;;;;;;-3.05;85.49;99339.48;105980;1298;57520;-71
2022/12/10 06:50:37;;;;;;;20.70;9.10;;;;;;;-3.03;85.54;99340.24;105898;1294;58985;-70
2022/12/10 06:53:24;;;;;;;17.90;8.70;;;;;;;-3.02;85.46;99348.21;105988;1291;74328;-70
2022/12/10 06:56:18;;;;;;;18.40;8.60;;;;;;;-2.99;85.68;99354.18;105975;1291;68013;-72
2022/12/10 06:59:06;;;;;;;19.50;9.50;;;;;;;-2.98;85.50;99357.44;105835;1290;74023;-72
2022/12/10 07:01:54;;;;;;;20.30;9.20;;;;;;;-2.93;85.77;99356.23;105901;1293;57222;-72
2022/12/10 07:04:42;;;;;;;17.60;8.30;;;;;;;-2.91;85.34;99354.42;106019;1298;60288;-71
2022/12/10 07:07:30;;;;;;;18.00;8.20;;;;;;;-2.89;84.96;99352.98;105271;1292;1002941;-70
2022/12/10 07:10:18;;;;;;;19.90;8.10;;;;;;;-2.91;84.68;99349.55;105998;1284;68639;-71
2022/12/10 07:13:07;;;;;;;22.30;8.10;;;;;;;-2.95;84.68;99351.80;105966;1291;71452;-71
2022/12/10 07:15:54;;;;;;;27.30;11.30;;;;;;;-3.00;84.67;99354.21;105976;1290;58852;-70
2022/12/10 07:18:43;;;;;;;22.90;9.90;;;;;;;-3.00;84.69;99354.57;106011;1292;60034;-72
2022/12/10 07:21:42;;;;;;;21.10;9.20;;;;;;;-3.01;84.42;99352.86;105974;1291;72885;-71
2022/12/10 07:24:29;;;;;;;22.80;9.50;;;;;;;-3.02;84.44;99356.55;105262;1290;1002343;-69
2022/12/10 07:27:17;;;;;;;26.60;9.70;;;;;;;-3.03;84.79;99359.86;105243;1292;1002586;-73
2022/12/10 07:30:05;;;;;;;29.80;11.00;;;;;;;-3.04;84.85;99357.48;105273;1288;1002559;-71
2022/12/10 07:32:54;;;;;;;24.10;10.90;;;;;;;-3.05;85.15;99360.64;105904;1295;60827;-69
2022/12/10 07:35:41;;;;;;;21.30;8.70;;;;;;;-3.06;85.32;99362.21;105228;1290;1002881;-71
2022/12/10 07:38:36;;;;;;;18.50;8.30;;;;;;;-3.09;84.83;99358.68;105981;1291;69176;-70
2022/12/10 07:41:25;;;;;;;21.00;9.60;;;;;;;-3.11;84.86;99359.08;105999;1291;72673;-71
2022/12/10 07:44:14;;;;;;;23.60;10.20;;;;;;;-3.09;85.01;99359.52;105869;1292;57539;-72
2022/12/10 07:47:02;;;;;;;22.40;10.40;;;;;;;-3.04;85.23;99359.90;105240;1291;1002065;-72
2022/12/10 07:49:50;;;;;;;23.20;10.20;;;;;;;-2.97;85.19;99356.20;105995;1290;72993;-72
2022/12/10 07:52:38;;;;;;;25.60;12.50;;;;;;;-2.92;84.82;99358.30;105257;1290;1002256;-72
2022/12/10 07:55:26;;;;;;;19.80;9.40;;;;;;;-2.88;85.16;99362.85;105980;1284;72625;-72
2022/12/10 07:58:14;;;;;;;21.40;10.60;;;;;;;-2.83;85.27;99363.36;105993;1290;57180;-70
2022/12/10 08:01:10;;;;;;;19.00;8.10;;;;;;;-2.79;85.06;99363.40;105247;1284;1002764;-72
2022/12/10 08:03:58;;;;;;;19.30;9.00;;;;;;;-2.80;84.47;99364.48;105975;1291;71409;-71
2022/12/10 08:06:47;;;;;;;17.90;8.40;;;;;;;-2.82;84.53;99366.81;105982;1288;68972;-71
2022/12/10 08:09:44;;;;;;;20.20;10.00;;;;;;;-2.82;84.41;99372.17;105946;1288;73490;-71
2022/12/10 08:12:36;;;;;;;24.90;11.40;;;;;;;-2.78;84.55;99373.25;105830;1294;60358;-72
2022/12/10 08:15:24;;;;;;;27.20;11.60;;;;;;;-2.77;84.55;99373.73;105803;1295;60365;-71
2022/12/10 08:18:12;;;;;;;19.80;9.20;;;;;;;-2.73;84.77;99381.44;105890;1291;73099;-71
2022/12/10 08:21:09;;;;;;;23.30;10.10;;;;;;;-2.72;84.42;99380.36;105213;1290;1002841;-72
2022/12/10 08:23:58;;;;;;;23.50;9.50;;;;;;;-2.68;84.49;99380.92;105727;1295;73788;-72
2022/12/10 08:26:49;;;;;;;19.50;8.60;;;;;;;-2.64;84.38;99378.68;105976;1284;57351;-72
2022/12/10 08:29:37;;;;;;;22.00;9.40;;;;;;;-2.61;84.67;99378.41;105821;1287;61146;-75
2022/12/10 08:32:25;;;;;;;28.90;11.70;;;;;;;-2.56;84.57;99383.83;105971;1284;74297;-73
2022/12/10 08:35:13;;;;;;;23.10;9.10;;;;;;;-2.53;84.45;99382.33;105969;1292;67611;-70
2022/12/10 08:38:01;;;;;;;28.70;12.70;;;;;;;-2.50;84.48;99387.95;105953;1295;71347;-70
2022/12/10 08:40:49;;;;;;;27.70;12.70;;;;;;;-2.47;84.23;99388.20;105971;1288;58601;-72
2022/12/10 08:43:38;;;;;;;24.90;12.80;;;;;;;-2.42;84.21;99388.70;105218;1291;1002694;-71
2022/12/10 08:46:26;;;;;;;26.30;13.00;;;;;;;-2.38;84.12;99394.82;105874;1291;73825;-71
2022/12/10 08:49:14;;;;;;;23.50;11.60;;;;;;;-2.35;83.77;99398.19;105982;1292;67869;-71
2022/12/10 08:52:02;;;;;;;25.20;12.20;;;;;;;-2.35;83.48;99394.71;105232;1292;1002148;-70
2022/12/10 08:54:50;;;;;;;27.70;12.90;;;;;;;-2.34;83.53;99391.39;105228;1291;1002596;-70
2022/12/10 08:57:37;;;;;;;23.10;10.00;;;;;;;-2.30;83.92;99395.75;105978;1291;60602;-69
2022/12/10 09:00:26;;;;;;;23.50;10.60;;;;;;;-2.24;84.09;99395.04;105231;1290;1002207;-70
2022/12/10 09:03:14;;;;;;;27.80;12.30;;;;;;;-2.24;83.79;99395.35;105966;1290;66767;-72
2022/12/10 09:06:09;;;;;;;34.90;15.80;;;;;;;-2.27;83.24;99394.41;105941;1292;73938;-70
2022/12/10 09:08:57;;;;;;;31.20;15.20;;;;;;;-2.25;83.51;99393.66;105872;1291;59767;-72
2022/12/10 09:11:45;;;;;;;33.40;15.00;;;;;;;-2.19;83.80;99390.34;105966;1292;60399;-70
2022/12/10 09:14:33;;;;;;;30.20;12.10;;;;;;;-2.14;83.27;99391.17;105250;1290;1003059;-71
2022/12/10 09:17:22;;;;;;;24.80;11.90;;;;;;;-2.11;83.29;99388.28;105974;1290;69117;-74
2022/12/10 09:20:30;;;;;;;21.40;9.30;;;;;;;-2.04;83.21;99384.23;105898;1292;72681;-71
2022/12/10 09:23:20;;;;;;;22.60;10.80;;;;;;;-1.99;83.36;99384.90;105887;1292;57161;-71
2022/12/10 09:26:12;;;;;;;20.30;9.70;;;;;;;-1.94;83.10;99385.05;105984;1290;58995;-72
2022/12/10 09:29:00;;;;;;;21.90;11.40;;;;;;;-1.93;82.70;99378.25;105242;1292;1002158;-70
2022/12/10 09:31:52;;;;;;;29.20;13.70;;;;;;;-1.90;83.12;99389.77;106009;1282;66269;-71
2022/12/10 09:34:40;;;;;;;33.90;16.40;;;;;;;-1.87;82.75;99391.45;105868;1297;70054;-71
2022/12/10 09:37:28;;;;;;;32.70;14.60;;;;;;;-1.86;82.46;99389.85;105261;1284;1002484;-72
2022/12/10 09:40:32;;;;;;;32.70;15.60;;;;;;;-1.86;82.50;99389.27;105964;1291;59502;-71
2022/12/10 09:43:41;;;;;;;34.90;16.00;;;;;;;-1.83;82.26;99390.05;105880;1286;73199;-71
2022/12/10 09:46:42;;;;;;;33.90;16.00;;;;;;;-1.81;82.03;99387.05;105789;1290;69235;-70
2022/12/10 09:50:07;;;;;;;28.60;13.30;;;;;;;-1.75;82.17;99387.33;105980;1296;71463;-71
2022/12/10 09:53:01;;;;;;;33.60;15.00;;;;;;;-1.76;81.52;99382.14;105959;1284;57330;-72
2022/12/10 09:55:50;;;;;;;35.30;16.00;;;;;;;-1.76;81.86;99382.48;105975;1292;60385;-71
2022/12/10 09:58:38;;;;;;;35.30;14.50;;;;;;;-1.76;81.49;99381.98;105980;1281;74152;-70
2022/12/10 10:01:32;;;;;;;36.30;16.80;;;;;;;-1.78;81.57;99379.24;105859;1290;67891;-71
2022/12/10 10:04:20;;;;;;;39.70;18.30;;;;;;;-1.79;81.30;99375.99;105907;1292;72426;-72
2022/12/10 10:07:21;;;;;;;42.70;18.60;;;;;;;-1.79;81.39;99377.75;105212;1291;1002676;-71
2022/12/10 10:10:31;;;;;;;46.50;18.40;;;;;;;-1.78;81.61;99377.52;105782;1294;60360;-72
2022/12/10 10:13:34;;;;;;;40.50;16.30;;;;;;;-1.72;81.39;99373.10;105977;1289;73342;-74
2022/12/10 10:16:34;;;;;;;37.90;16.60;;;;;;;-1.72;81.18;99380.91;106006;1291;67057;-72
2022/12/10 10:19:35;;;;;;;35.50;16.30;;;;;;;-1.71;81.44;99372.89;105785;1296;71516;-71
2022/12/10 10:22:26;;;;;;;37.20;16.60;;;;;;;-1.64;81.69;99374.55;105865;1290;57153;-70
2022/12/10 10:25:18;;;;;;;33.20;14.80;;;;;;;-1.59;81.63;99375.41;105792;1299;60058;-73
2022/12/10 10:28:22;;;;;;;31.00;14.90;;;;;;;-1.51;81.70;99376.51;105977;1288;73084;-73
2022/12/10 10:31:28;;;;;;;35.10;15.40;;;;;;;-1.46;81.56;99379.09;105919;1290;69129;-70
2022/12/10 10:34:22;;;;;;;35.30;16.60;;;;;;;-1.40;81.43;99374.30;105759;1289;72589;-72
2022/12/10 10:37:28;;;;;;;30.50;15.50;;;;;;;-1.33;81.49;99373.69;105854;1290;58504;-72
2022/12/10 10:40:29;;;;;;;29.30;14.60;;;;;;;-1.23;81.59;99373.11;105985;1297;59068;-71
2022/12/10 10:43:41;;;;;;;29.50;13.90;;;;;;;-1.14;80.98;99375.70;105886;1295;71894;-71
2022/12/10 10:46:35;;;;;;;25.30;12.00;;;;;;;-1.09;81.15;99366.45;105914;1294;68032;-72
2022/12/10 10:49:35;;;;;;;28.50;12.90;;;;;;;-1.05;80.99;99363.67;105833;1292;72850;-73
2022/12/10 10:52:41;;;;;;;24.90;12.20;;;;;;;-0.96;80.99;99364.73;105144;1290;1002291;-71
2022/12/10 10:55:41;;;;;;;24.00;12.30;;;;;;;-0.84;80.32;99367.34;105808;1290;58834;-69
2022/12/10 10:58:55;;;;;;;25.20;12.20;;;;;;;-0.77;80.13;99367.77;105825;1290;72056;-72
2022/12/10 11:02:17;;;;;;;25.90;11.70;;;;;;;-0.62;79.43;99366.05;105022;1295;1003014;-72
2022/12/10 11:05:30;;;;;;;24.70;10.70;;;;;;;-0.44;78.63;99367.77;105898;1292;72658;-71
2022/12/10 11:08:31;;;;;;;22.10;10.10;;;;;;;-0.12;78.07;99366.70;105799;1294;57301;-71
2022/12/10 11:11:25;;;;;;;22.20;11.00;;;;;;;1.44;76.17;99352.75;105843;1287;61695;-70
2022/12/10 11:14:41;;;;;;;21.40;10.40;;;;;;;2.59;71.15;99346.45;105904;1295;74249;-71
2022/12/10 11:17:47;;;;;;;23.00;11.30;;;;;;;3.21;67.42;99341.40;105428;1296;67791;-71
2022/12/10 11:21:29;;;;;;;19.70;10.40;;;;;;;3.37;65.15;99338.84;105553;1303;71492;-71
2022/12/10 11:24:20;;;;;;;21.30;11.40;;;;;;;3.36;65.73;99333.48;105436;1297;57279;-70
2022/12/10 11:27:30;;;;;;;19.20;10.30;;;;;;;3.83;63.99;99337.30;105533;1300;59117;-72
2022/12/10 11:30:32;;;;;;;21.10;11.30;;;;;;;3.89;63.26;99334.84;105393;1298;73289;-71
2022/12/10 11:34:03;;;;;;;22.10;12.00;;;;;;;4.41;62.60;99332.80;105427;1297;66531;-69
2022/12/10 11:37:03;;;;;;;21.60;12.50;;;;;;;5.22;59.56;99327.05;104901;1300;1002956;-70
2022/12/10 11:40:14;;;;;;;19.50;11.30;;;;;;;6.00;58.08;99325.43;105501;1293;57330;-70
2022/12/10 11:43:16;;;;;;;18.80;10.20;;;;;;;5.83;56.86;99320.05;105697;1290;59091;-72
2022/12/10 11:46:44;;;;;;;19.30;11.30;;;;;;;5.77;56.52;99327.71;105782;1285;74140;-70
2022/12/10 11:50:08;;;;;;;23.30;11.90;;;;;;;5.31;56.06;99324.00;105078;1296;1003027;-73
2022/12/10 11:53:30;;;;;;;19.50;11.10;;;;;;;4.70;56.57;99328.36;105680;1295;73921;-71
2022/12/10 11:56:53;;;;;;;19.60;9.90;;;;;;;4.14;57.94;99331.02;105830;1290;57305;-71
2022/12/10 11:59:52;;;;;;;20.00;11.00;;;;;;;3.68;59.76;99334.73;105293;1298;60077;-69
2022/12/10 12:03:19;;;;;;;19.50;9.80;;;;;;;3.26;60.74;99331.40;105301;1298;71120;-72
2022/12/10 12:06:13;;;;;;;19.60;10.40;;;;;;;2.89;61.81;99329.89;105311;1301;67582;-72
2022/12/10 12:09:38;;;;;;;21.20;11.80;;;;;;;2.55;63.11;99329.70;105251;1289;73756;-70
2022/12/10 12:13:08;;;;;;;21.40;11.40;;;;;;;2.20;64.16;99330.04;105272;1298;58175;-70
2022/12/10 12:16:14;;;;;;;18.80;10.30;;;;;;;1.95;65.12;99334.21;105279;1302;61146;-72
2022/12/10 12:19:30;;;;;;;20.60;10.50;;;;;;;1.73;66.47;99332.95;105215;1306;71933;-70
2022/12/10 12:22:30;;;;;;;23.10;11.00;;;;;;;1.46;66.94;99332.55;105207;1301;68067;-71
2022/12/10 12:25:44;;;;;;;24.90;11.30;;;;;;;1.17;67.53;99335.26;105081;1301;73480;-70
2022/12/10 12:28:42;;;;;;;23.10;11.20;;;;;;;0.88;67.73;99334.11;105095;1303;57416;-70
2022/12/10 12:31:37;;;;;;;19.40;10.30;;;;;;;0.69;68.74;99335.70;105308;1299;59138;-72
2022/12/10 12:34:41;;;;;;;26.40;13.00;;;;;;;0.71;69.28;99338.27;105213;1298;74295;-70
2022/12/10 12:38:18;;;;;;;20.90;10.60;;;;;;;0.66;69.30;99335.86;105783;1293;67766;-70
2022/12/10 12:41:43;;;;;;;23.10;11.00;;;;;;;0.51;69.78;99329.78;105279;1297;73899;-71
2022/12/10 12:44:43;;;;;;;20.80;9.80;;;;;;;0.37;70.44;99332.02;105258;1305;58219;-71
2022/12/10 12:47:49;;;;;;;21.80;10.30;;;;;;;0.18;70.28;99331.30;105273;1298;61607;-71
2022/12/10 12:50:46;;;;;;;25.00;11.50;;;;;;;-0.04;71.02;99331.63;105178;1302;71879;-73
2022/12/10 12:53:35;;;;;;;26.10;11.50;;;;;;;-0.30;71.54;99335.42;105303;1298;67819;-71
2022/12/10 12:56:38;;;;;;;25.30;12.50;;;;;;;-0.47;72.20;99336.88;105192;1301;72876;-71
2022/12/10 13:00:05;;;;;;;29.20;13.70;;;;;;;-0.63;73.06;99336.34;105226;1300;58489;-71
2022/12/10 13:03:04;;;;;;;25.70;12.20;;;;;;;-0.80;73.55;99335.99;105263;1299;60502;-72
2022/12/10 13:05:52;;;;;;;31.10;13.40;;;;;;;-0.91;74.02;99342.23;105224;1306;74285;-72
2022/12/10 13:09:23;;;;;;;26.00;13.30;;;;;;;-0.98;74.22;99343.39;105307;1300;67889;-75
2022/12/10 13:12:14;;;;;;;23.90;10.80;;;;;;;-1.12;74.65;99340.45;105302;1298;72431;-71
2022/12/10 13:15:34;;;;;;;24.50;11.40;;;;;;;-1.21;75.15;99341.86;105280;1299;57264;-70
2022/12/10 13:18:38;;;;;;;29.80;14.50;;;;;;;-1.32;75.51;99340.24;105714;1288;61493;-72
2022/12/10 13:21:31;;;;;;;25.00;12.20;;;;;;;-1.43;76.20;99343.46;105147;1291;1002934;-72
2022/12/10 13:25:09;;;;;;;24.50;11.80;;;;;;;-1.55;76.75;99350.02;105775;1285;66203;-70
2022/12/10 13:28:16;;;;;;;32.20;13.50;;;;;;;-1.69;77.52;99355.95;105815;1290;74010;-71